Union City, Missouri
Current Conditions -  °F | °C
As of 2:01 AM on Friday 24 Oct 2014 (Local Time) from KSGF Reporting Station
Haze Haze  
Wind Chill: 52°   Ceiling: Unl
Heat Index: 52°   Visibility: 3mi
Dew Point: 50°   Wind: 8mph
Humidity: 93%   Direction: 180°S
Pressure: 30.11"   Gusts: NA
Location:  37.0483°N, 93.5506°W
Report Text: KSGF 240701Z 18007KT 3SM BR SCT017 11/10 A3011 RMK AO2 T01110100
Loading
Personal Weather Stations






























Interactive Weather Map
Tropical Storm Tracking
New forecast layout! Learn more

10-Day Weather Forecast

Advertisements
Track Severe Weather on mobile